Main page
METAR-TAF:

METAR-TAF

Airports :

Luxembourg Findel Airport

Luxembourg, Luxembourg

latitude: 49-37N, longitude: 006-13E, elevation: 376 m

Current weather observation

The report was made 31 minutes ago, at 05:20 UTC
Wind 6 kt from the East/Northeast
Temperature 18°C
Humidity 64%
Pressure 1019 hPa
Visibility 10 km or more
no clouds below 1500 m and no cumulonimbus

METAR: ELLX 250520Z 06006KT CAVOK 18/11 Q1019 NOSIG

Time: 07:51 (05:51 UTC)

Forecast

The report was made 51 minutes ago, at 05:00 UTC
Forecast valid from 25 at 06 UTC to 26 at 12 UTC
Wind 4 kt from the Northeast
Visibility 10 km or more
no clouds below 1500 m and no cumulonimbus
Temporary
from 25 at 09 UTC to 25 at 15 UTC
Wind 5 kt from the South/Southeast

TAF: ELLX 250500Z 2506/2612 05004KT CAVOK TEMPO 2509/2515 16005KT

Weather observations and forecasts of more than 4000 airports (METAR and TAF reports).

The available stations are represented by yellow and red dots on the map.

Hover mouse over dot to see the name of the station.

Then click to see weather observations and forecasts.

To change the map : click on the green buttons with a black cross to zoom in, on the green button with a dash to zoom out, or on the green arrows for adjacent maps.


METAR-TAF: